Time;durP1;ratioP1;P1;durP2;ratioP2;P2;SDS_P1;SDS_P2;PMS_P1;PMS_P2;Temp;Humidity;BMP_temperature;BMP_pressure;BME280_temperature;BME280_humidity;BME280_pressure;Samples;Min_cycle;Max_cycle;Signal;HPM_P1;HPM_P2
2022/12/16 00:02:19;;;;;;;0.45;0.45;;;;;;;2.09;75.53;101111.59;5083711;28;20059;-81
2022/12/16 00:04:46;;;;;;;0.20;0.20;;;;;;;2.15;75.18;101111.72;5080709;28;20059;-81
2022/12/16 00:07:12;;;;;;;0.50;0.50;;;;;;;2.18;75.13;101108.28;5080289;28;20524;-81
2022/12/16 00:09:38;;;;;;;0.20;0.20;;;;;;;2.19;74.83;101120.50;5078824;28;20043;-81
2022/12/16 00:12:04;;;;;;;2.08;1.55;;;;;;;2.17;74.90;101122.19;5075290;28;20036;-81
2022/12/16 00:14:30;;;;;;;0.20;0.20;;;;;;;2.12;75.07;101127.38;5076555;28;20029;-81
2022/12/16 00:16:56;;;;;;;0.10;0.10;;;;;;;2.06;75.58;101120.28;5088391;28;20127;-80
2022/12/16 00:19:23;;;;;;;0.20;0.20;;;;;;;2.09;75.18;101122.97;5091108;28;20020;-80
2022/12/16 00:21:49;;;;;;;0.10;0.10;;;;;;;2.11;75.05;101120.38;5098070;28;20020;-81
2022/12/16 00:24:15;;;;;;;0.20;0.20;;;;;;;2.10;75.28;101123.84;5085625;28;20032;-81
2022/12/16 00:26:41;;;;;;;0.20;0.20;;;;;;;2.06;74.95;101122.03;5080327;28;20036;-81
2022/12/16 00:29:09;;;;;;;1.05;1.05;;;;;;;2.07;75.09;101124.66;5076606;28;20404;-80
2022/12/16 00:31:36;;;;;;;1.17;1.17;;;;;;;2.06;75.02;101124.63;5087908;28;20021;-80
2022/12/16 00:34:02;;;;;;;0.10;0.10;;;;;;;2.03;75.18;101128.06;5075030;28;20407;-81
2022/12/16 00:36:28;;;;;;;0.20;0.20;;;;;;;2.03;75.34;101125.44;5075210;28;20019;-80
2022/12/16 00:38:54;;;;;;;0.20;0.20;;;;;;;2.03;75.41;101132.41;5075235;28;20036;-81
2022/12/16 00:41:20;;;;;;;0.20;0.20;;;;;;;2.06;75.26;101132.47;5076016;28;20081;-80
2022/12/16 00:43:47;;;;;;;0.20;0.20;;;;;;;2.09;75.47;101137.75;5076864;28;20032;-80
2022/12/16 00:46:13;;;;;;;0.10;0.10;;;;;;;2.10;75.23;101136.91;5076044;28;20030;-80
2022/12/16 00:48:39;;;;;;;0.10;0.10;;;;;;;2.15;75.06;101139.63;5071442;28;20546;-80
2022/12/16 00:51:05;;;;;;;0.10;0.10;;;;;;;2.17;75.49;101148.34;5067109;28;20071;-80
2022/12/16 00:53:31;;;;;;;0.20;0.20;;;;;;;2.19;75.53;101149.25;5070595;28;20111;-80
2022/12/16 00:56:06;;;;;;;0.20;0.20;;;;;;;2.18;75.69;101139.66;5072868;28;20086;-80
2022/12/16 00:58:32;;;;;;;0.20;0.20;;;;;;;2.21;75.26;101147.56;5070383;28;20085;-80
2022/12/16 01:00:58;;;;;;;0.10;0.10;;;;;;;2.23;75.14;101151.06;5072653;28;20024;-81
2022/12/16 01:03:25;;;;;;;0.10;0.10;;;;;;;2.18;75.85;101156.25;5073158;28;20048;-80
2022/12/16 01:05:51;;;;;;;0.10;0.10;;;;;;;2.24;75.49;101153.75;5071218;28;20071;-80
2022/12/16 01:08:17;;;;;;;0.17;0.17;;;;;;;2.22;75.88;101154.56;5074363;28;20029;-80
2022/12/16 01:10:50;;;;;;;0.20;0.20;;;;;;;2.24;75.63;101164.22;5074083;28;20028;-80
2022/12/16 01:13:16;;;;;;;0.20;0.20;;;;;;;2.19;75.83;101155.34;5070484;28;20391;-79
2022/12/16 01:15:42;;;;;;;0.10;0.10;;;;;;;2.21;75.93;101164.13;5067597;28;20067;-80
2022/12/16 01:18:09;;;;;;;0.20;0.20;;;;;;;2.17;75.92;101170.16;5072260;28;20032;-80
2022/12/16 01:20:37;;;;;;;0.10;0.10;;;;;;;2.17;76.19;101158.81;5071714;28;20104;-79
2022/12/16 01:23:03;;;;;;;0.20;0.20;;;;;;;2.19;75.37;101165.81;5074702;28;20054;-80
2022/12/16 01:25:29;;;;;;;0.38;0.38;;;;;;;2.18;75.41;101169.31;5073346;28;20108;-80
2022/12/16 01:27:56;;;;;;;0.20;0.20;;;;;;;2.14;75.16;101172.69;5074364;28;20601;-79
2022/12/16 01:30:23;;;;;;;0.13;0.13;;;;;;;2.09;75.60;101174.34;5074783;28;20032;-80
2022/12/16 01:32:49;;;;;;;0.10;0.10;;;;;;;2.04;75.50;101181.22;5079853;28;20094;-80
2022/12/16 01:35:15;;;;;;;0.10;0.10;;;;;;;2.05;75.37;101190.81;5086131;28;20063;-80
2022/12/16 01:37:41;;;;;;;0.20;0.20;;;;;;;1.99;75.38;101188.94;5090854;28;20071;-80
2022/12/16 01:40:15;;;;;;;0.10;0.10;;;;;;;1.99;75.21;101193.31;5083150;28;20159;-80
2022/12/16 01:42:43;;;;;;;0.10;0.10;;;;;;;1.93;75.36;101204.50;5081448;28;20024;-80
2022/12/16 01:48:39;;;;;;;0.10;0.10;;;;;;;2.00;75.33;101213.38;5089225;28;20382;-81
2022/12/16 01:51:12;;;;;;;0.10;0.10;;;;;;;1.93;75.20;101218.47;5070745;28;20033;-81
2022/12/16 01:53:41;;;;;;;;;;;;;;;2.00;74.87;101221.22;5054581;28;20452;-81
2022/12/16 01:56:07;;;;;;;0.10;0.10;;;;;;;1.89;75.13;101224.44;5058984;28;19929;-81
2022/12/16 01:58:37;;;;;;;0.10;0.10;;;;;;;1.83;75.44;101226.06;5050984;28;20028;-80
2022/12/16 02:01:03;;;;;;;0.20;0.20;;;;;;;1.84;75.25;101231.31;5051531;28;20034;-81
2022/12/16 02:03:33;;;;;;;0.10;0.10;;;;;;;1.84;75.29;101231.31;5059258;28;20025;-80
2022/12/16 02:06:02;;;;;;;0.10;0.10;;;;;;;1.87;75.12;101230.50;5047660;28;20017;-80
2022/12/16 02:08:28;;;;;;;0.20;0.20;;;;;;;1.83;75.27;101245.22;5055065;28;20083;-80
2022/12/16 02:14:30;;;;;;;0.10;0.10;;;;;;;1.94;75.51;101246.38;5044760;27;20480;-80
2022/12/16 02:22:36;;;;;;;0.20;0.20;;;;;;;1.99;75.47;101243.84;5091703;27;20138;-79
2022/12/16 02:27:57;;;;;;;0.20;0.20;;;;;;;2.01;75.28;101246.50;5062939;28;20168;-80
2022/12/16 02:30:48;;;;;;;0.20;0.20;;;;;;;2.04;75.34;101254.41;5065134;28;20059;-80
2022/12/16 02:33:54;;;;;;;0.20;0.20;;;;;;;2.03;75.39;101250.00;5040896;28;20029;-80
2022/12/16 02:36:44;;;;;;;0.10;0.10;;;;;;;1.99;75.12;101242.97;5046266;28;20025;-80
2022/12/16 02:39:19;;;;;;;0.20;0.20;;;;;;;1.93;75.07;101241.97;5037084;28;20049;-79
2022/12/16 02:41:55;;;;;;;0.10;0.10;;;;;;;1.87;75.13;101248.78;5045018;28;20416;-79
2022/12/16 02:44:34;;;;;;;0.20;0.20;;;;;;;1.83;75.23;101245.22;5047412;28;20048;-80
2022/12/16 02:47:00;;;;;;;0.20;0.20;;;;;;;1.78;75.25;101246.84;5052500;28;20072;-80
2022/12/16 02:52:01;;;;;;;0.20;0.20;;;;;;;1.70;74.96;101248.44;5108984;27;1187736;-79
2022/12/16 02:54:28;;;;;;;0.20;0.20;;;;;;;1.66;74.99;101257.91;5130463;28;20372;-79
2022/12/16 02:57:26;;;;;;;0.20;0.20;;;;;;;1.72;74.71;101265.00;5132352;27;20546;-79
2022/12/16 03:05:39;;;;;;;0.10;0.10;;;;;;;1.59;74.89;101271.69;5088514;27;20801;-79
2022/12/16 03:08:12;;;;;;;0.20;0.20;;;;;;;1.61;74.59;101275.22;5088939;28;20403;-79
2022/12/16 03:10:44;;;;;;;0.10;0.10;;;;;;;1.55;74.79;101270.72;5088151;28;20029;-79
2022/12/16 03:13:13;;;;;;;0.20;0.20;;;;;;;1.55;74.80;101281.16;5077934;28;20025;-79
2022/12/16 03:15:40;;;;;;;0.22;0.22;;;;;;;1.46;74.69;101278.34;5073554;28;20025;-79
2022/12/16 03:18:09;;;;;;;0.10;0.10;;;;;;;1.47;74.29;101282.72;5076226;28;20093;-79
2022/12/16 03:23:16;;;;;;;0.20;0.20;;;;;;;1.49;74.57;101280.16;5065735;28;20774;-79
2022/12/16 03:25:46;;;;;;;0.10;0.10;;;;;;;1.48;74.26;101294.91;5044925;28;20097;-79
2022/12/16 03:31:29;;;;;;;0.10;0.10;;;;;;;1.48;73.90;101310.56;5116981;27;1213042;-81
2022/12/16 03:34:06;;;;;;;0.15;0.15;;;;;;;1.41;74.13;101311.31;5141875;28;20534;-80
2022/12/16 03:36:36;;;;;;;0.20;0.20;;;;;;;1.44;74.14;101313.97;5116122;28;20028;-81
2022/12/16 03:39:05;;;;;;;0.20;0.20;;;;;;;1.36;73.43;101320.72;5115675;28;20020;-81
2022/12/16 03:41:33;;;;;;;0.10;0.10;;;;;;;1.35;73.52;101329.41;5118369;28;20055;-81
2022/12/16 03:44:00;;;;;;;0.17;0.17;;;;;;;1.35;73.49;101326.81;5110151;28;20028;-80
2022/12/16 03:46:26;;;;;;;0.20;0.20;;;;;;;1.35;73.65;101329.41;5122442;28;20038;-82
2022/12/16 03:48:53;;;;;;;0.30;0.30;;;;;;;1.32;73.53;101329.31;5115081;28;20032;-81
2022/12/16 03:51:20;;;;;;;0.20;0.20;;;;;;;1.31;73.45;101328.44;5124124;28;20031;-79
2022/12/16 03:53:46;;;;;;;0.15;0.15;;;;;;;1.29;73.19;101336.22;5109025;28;20036;-82
2022/12/16 03:56:13;;;;;;;0.10;0.10;;;;;;;1.27;73.37;101332.72;5120355;28;20028;-80
2022/12/16 03:58:39;;;;;;;0.20;0.20;;;;;;;1.24;73.43;101335.22;5113626;28;20040;-82
2022/12/16 04:01:08;;;;;;;0.10;0.10;;;;;;;1.27;73.19;101337.94;5105525;28;20039;-82
2022/12/16 04:03:36;;;;;;;0.43;0.43;;;;;;;1.23;72.98;101338.66;5114961;28;20028;-82
2022/12/16 04:06:03;;;;;;;0.20;0.20;;;;;;;1.16;73.08;101339.38;5122363;28;20044;-81
2022/12/16 04:08:29;;;;;;;0.10;0.10;;;;;;;1.15;72.70;101345.44;5116321;28;20033;-83
2022/12/16 04:25:09;;;;;;;0.20;0.20;;;;;;;0.84;72.35;101352.41;5104055;28;20065;-80
2022/12/16 04:27:35;;;;;;;0.10;0.10;;;;;;;0.79;71.75;101360.09;5097033;28;20039;-81
